sensor_id;sensor_type;location;lat;lon;timestamp;P1;durP1;ratioP1;P2;durP2;ratioP2
8871;SDS011;4472;52.092;9.820;2023-05-16T00:00:48;13.37;;;11.03;;
8871;SDS011;4472;52.092;9.820;2023-05-16T00:03:37;12.47;;;10.93;;
8871;SDS011;4472;52.092;9.820;2023-05-16T00:06:26;14.67;;;12.13;;
8871;SDS011;4472;52.092;9.820;2023-05-16T00:09:13;16.23;;;12.47;;
8871;SDS011;4472;52.092;9.820;2023-05-16T00:12:01;14.93;;;11.83;;
8871;SDS011;4472;52.092;9.820;2023-05-16T00:14:49;14.53;;;12.60;;
8871;SDS011;4472;52.092;9.820;2023-05-16T00:17:37;14.27;;;11.53;;
8871;SDS011;4472;52.092;9.820;2023-05-16T00:20:25;14.63;;;12.80;;
8871;SDS011;4472;52.092;9.820;2023-05-16T00:23:13;15.07;;;12.40;;
8871;SDS011;4472;52.092;9.820;2023-05-16T00:26:01;14.63;;;11.67;;
8871;SDS011;4472;52.092;9.820;2023-05-16T00:28:50;14.43;;;10.93;;
8871;SDS011;4472;52.092;9.820;2023-05-16T00:31:38;13.20;;;10.73;;
8871;SDS011;4472;52.092;9.820;2023-05-16T00:34:25;12.83;;;10.80;;
8871;SDS011;4472;52.092;9.820;2023-05-16T00:37:13;14.40;;;10.57;;
8871;SDS011;4472;52.092;9.820;2023-05-16T00:40:01;13.10;;;10.40;;
8871;SDS011;4472;52.092;9.820;2023-05-16T00:42:49;13.87;;;9.77;;
8871;SDS011;4472;52.092;9.820;2023-05-16T00:45:36;16.23;;;10.57;;
8871;SDS011;4472;52.092;9.820;2023-05-16T00:48:23;12.47;;;10.03;;
8871;SDS011;4472;52.092;9.820;2023-05-16T00:51:11;14.10;;;9.73;;
8871;SDS011;4472;52.092;9.820;2023-05-16T00:53:58;14.10;;;10.00;;
8871;SDS011;4472;52.092;9.820;2023-05-16T00:56:47;12.97;;;10.50;;
8871;SDS011;4472;52.092;9.820;2023-05-16T00:59:34;20.07;;;10.57;;
8871;SDS011;4472;52.092;9.820;2023-05-16T01:02:21;13.80;;;10.50;;
8871;SDS011;4472;52.092;9.820;2023-05-16T01:05:12;10.57;;;9.47;;
8871;SDS011;4472;52.092;9.820;2023-05-16T01:07:59;13.07;;;9.53;;
8871;SDS011;4472;52.092;9.820;2023-05-16T01:10:49;13.77;;;9.00;;
8871;SDS011;4472;52.092;9.820;2023-05-16T01:13:47;12.07;;;7.93;;
8871;SDS011;4472;52.092;9.820;2023-05-16T01:16:41;9.47;;;8.43;;
8871;SDS011;4472;52.092;9.820;2023-05-16T01:19:39;12.53;;;8.80;;
8871;SDS011;4472;52.092;9.820;2023-05-16T01:22:40;9.70;;;8.07;;
8871;SDS011;4472;52.092;9.820;2023-05-16T01:25:38;9.33;;;7.37;;
8871;SDS011;4472;52.092;9.820;2023-05-16T01:28:43;10.73;;;7.93;;
8871;SDS011;4472;52.092;9.820;2023-05-16T01:31:31;10.90;;;7.83;;
8871;SDS011;4472;52.092;9.820;2023-05-16T01:34:18;11.07;;;8.27;;
8871;SDS011;4472;52.092;9.820;2023-05-16T01:37:08;10.33;;;8.47;;
8871;SDS011;4472;52.092;9.820;2023-05-16T01:40:02;10.40;;;7.57;;
8871;SDS011;4472;52.092;9.820;2023-05-16T01:42:54;10.33;;;8.33;;
8871;SDS011;4472;52.092;9.820;2023-05-16T01:45:46;9.17;;;7.70;;
8871;SDS011;4472;52.092;9.820;2023-05-16T01:48:42;9.67;;;8.10;;
8871;SDS011;4472;52.092;9.820;2023-05-16T01:51:36;9.03;;;7.33;;
8871;SDS011;4472;52.092;9.820;2023-05-16T01:54:26;12.37;;;7.43;;
8871;SDS011;4472;52.092;9.820;2023-05-16T01:57:17;9.20;;;7.23;;
8871;SDS011;4472;52.092;9.820;2023-05-16T02:00:10;9.30;;;7.00;;
8871;SDS011;4472;52.092;9.820;2023-05-16T02:02:59;10.53;;;7.30;;
8871;SDS011;4472;52.092;9.820;2023-05-16T02:05:46;9.30;;;6.90;;
8871;SDS011;4472;52.092;9.820;2023-05-16T02:08:33;8.37;;;6.73;;
8871;SDS011;4472;52.092;9.820;2023-05-16T02:11:20;8.67;;;6.47;;
8871;SDS011;4472;52.092;9.820;2023-05-16T02:14:07;10.97;;;7.20;;
8871;SDS011;4472;52.092;9.820;2023-05-16T02:16:55;12.47;;;8.20;;
8871;SDS011;4472;52.092;9.820;2023-05-16T02:19:44;14.03;;;8.00;;
8871;SDS011;4472;52.092;9.820;2023-05-16T02:22:31;10.47;;;8.10;;
8871;SDS011;4472;52.092;9.820;2023-05-16T02:25:18;11.53;;;7.70;;
8871;SDS011;4472;52.092;9.820;2023-05-16T02:28:06;10.20;;;7.23;;
8871;SDS011;4472;52.092;9.820;2023-05-16T02:30:56;9.50;;;7.53;;
8871;SDS011;4472;52.092;9.820;2023-05-16T02:33:44;9.77;;;7.33;;
8871;SDS011;4472;52.092;9.820;2023-05-16T02:36:32;10.07;;;6.90;;
8871;SDS011;4472;52.092;9.820;2023-05-16T02:39:20;9.00;;;7.63;;
8871;SDS011;4472;52.092;9.820;2023-05-16T02:42:07;10.47;;;6.70;;
8871;SDS011;4472;52.092;9.820;2023-05-16T02:44:54;10.90;;;7.20;;
8871;SDS011;4472;52.092;9.820;2023-05-16T02:47:41;7.50;;;6.70;;
8871;SDS011;4472;52.092;9.820;2023-05-16T02:50:28;10.73;;;6.50;;
8871;SDS011;4472;52.092;9.820;2023-05-16T02:53:17;9.13;;;6.80;;
8871;SDS011;4472;52.092;9.820;2023-05-16T02:56:04;9.00;;;6.60;;
8871;SDS011;4472;52.092;9.820;2023-05-16T02:58:52;10.40;;;5.80;;
8871;SDS011;4472;52.092;9.820;2023-05-16T03:01:40;7.37;;;5.43;;
8871;SDS011;4472;52.092;9.820;2023-05-16T03:04:27;8.33;;;5.40;;
8871;SDS011;4472;52.092;9.820;2023-05-16T03:07:14;7.43;;;5.10;;
8871;SDS011;4472;52.092;9.820;2023-05-16T03:10:04;7.70;;;4.30;;
8871;SDS011;4472;52.092;9.820;2023-05-16T03:12:52;5.47;;;4.03;;
8871;SDS011;4472;52.092;9.820;2023-05-16T03:15:39;5.73;;;3.97;;
8871;SDS011;4472;52.092;9.820;2023-05-16T03:18:26;4.67;;;3.50;;
8871;SDS011;4472;52.092;9.820;2023-05-16T03:21:13;6.43;;;3.67;;
8871;SDS011;4472;52.092;9.820;2023-05-16T03:24:01;4.97;;;3.10;;
8871;SDS011;4472;52.092;9.820;2023-05-16T03:26:49;4.10;;;3.33;;
8871;SDS011;4472;52.092;9.820;2023-05-16T03:29:36;4.43;;;2.73;;
8871;SDS011;4472;52.092;9.820;2023-05-16T03:32:24;2.53;;;2.30;;
8871;SDS011;4472;52.092;9.820;2023-05-16T03:35:11;2.63;;;2.23;;
8871;SDS011;4472;52.092;9.820;2023-05-16T03:37:58;6.13;;;2.57;;
8871;SDS011;4472;52.092;9.820;2023-05-16T03:40:45;4.83;;;2.27;;
8871;SDS011;4472;52.092;9.820;2023-05-16T03:43:33;5.13;;;2.33;;
8871;SDS011;4472;52.092;9.820;2023-05-16T03:46:21;2.30;;;2.10;;
8871;SDS011;4472;52.092;9.820;2023-05-16T03:49:08;3.93;;;2.27;;
8871;SDS011;4472;52.092;9.820;2023-05-16T03:51:55;5.27;;;2.43;;
8871;SDS011;4472;52.092;9.820;2023-05-16T03:54:42;3.17;;;2.30;;
8871;SDS011;4472;52.092;9.820;2023-05-16T03:57:30;3.70;;;2.40;;
8871;SDS011;4472;52.092;9.820;2023-05-16T04:00:19;5.77;;;2.60;;
8871;SDS011;4472;52.092;9.820;2023-05-16T04:03:06;4.37;;;2.73;;
8871;SDS011;4472;52.092;9.820;2023-05-16T04:05:53;4.50;;;2.50;;
8871;SDS011;4472;52.092;9.820;2023-05-16T04:08:40;8.83;;;2.97;;
8871;SDS011;4472;52.092;9.820;2023-05-16T04:11:29;6.87;;;2.43;;
8871;SDS011;4472;52.092;9.820;2023-05-16T04:14:16;7.40;;;3.03;;
8871;SDS011;4472;52.092;9.820;2023-05-16T04:17:05;6.80;;;2.50;;
8871;SDS011;4472;52.092;9.820;2023-05-16T04:19:52;7.00;;;3.30;;
8871;SDS011;4472;52.092;9.820;2023-05-16T04:22:40;4.77;;;2.73;;
8871;SDS011;4472;52.092;9.820;2023-05-16T04:25:27;9.53;;;3.30;;
8871;SDS011;4472;52.092;9.820;2023-05-16T04:28:17;8.87;;;3.20;;
8871;SDS011;4472;52.092;9.820;2023-05-16T04:31:05;13.60;;;3.60;;
8871;SDS011;4472;52.092;9.820;2023-05-16T04:33:54;9.93;;;3.70;;
8871;SDS011;4472;52.092;9.820;2023-05-16T04:36:42;11.23;;;3.53;;
8871;SDS011;4472;52.092;9.820;2023-05-16T04:39:29;7.60;;;3.30;;
8871;SDS011;4472;52.092;9.820;2023-05-16T04:42:16;11.60;;;3.50;;
8871;SDS011;4472;52.092;9.820;2023-05-16T04:45:05;9.87;;;3.40;;
8871;SDS011;4472;52.092;9.820;2023-05-16T04:47:55;8.70;;;3.10;;
8871;SDS011;4472;52.092;9.820;2023-05-16T04:50:44;10.30;;;3.30;;
8871;SDS011;4472;52.092;9.820;2023-05-16T04:53:31;11.80;;;3.57;;
8871;SDS011;4472;52.092;9.820;2023-05-16T04:56:18;6.73;;;2.80;;
8871;SDS011;4472;52.092;9.820;2023-05-16T04:59:06;9.77;;;3.33;;
8871;SDS011;4472;52.092;9.820;2023-05-16T05:01:54;8.47;;;3.70;;
8871;SDS011;4472;52.092;9.820;2023-05-16T05:04:41;10.73;;;2.80;;
8871;SDS011;4472;52.092;9.820;2023-05-16T05:07:29;7.33;;;3.27;;
8871;SDS011;4472;52.092;9.820;2023-05-16T05:10:16;7.23;;;2.97;;
8871;SDS011;4472;52.092;9.820;2023-05-16T05:13:04;9.77;;;3.47;;
8871;SDS011;4472;52.092;9.820;2023-05-16T05:15:51;10.30;;;3.63;;
8871;SDS011;4472;52.092;9.820;2023-05-16T05:18:38;9.33;;;3.60;;
8871;SDS011;4472;52.092;9.820;2023-05-16T05:21:25;10.13;;;3.47;;
8871;SDS011;4472;52.092;9.820;2023-05-16T05:24:13;9.83;;;4.23;;
8871;SDS011;4472;52.092;9.820;2023-05-16T05:27:01;11.70;;;3.63;;
8871;SDS011;4472;52.092;9.820;2023-05-16T05:29:48;10.90;;;3.53;;
8871;SDS011;4472;52.092;9.820;2023-05-16T05:32:35;11.80;;;3.57;;
8871;SDS011;4472;52.092;9.820;2023-05-16T05:35:22;12.53;;;3.47;;
8871;SDS011;4472;52.092;9.820;2023-05-16T05:38:09;11.03;;;3.57;;
8871;SDS011;4472;52.092;9.820;2023-05-16T05:40:58;8.73;;;3.37;;
8871;SDS011;4472;52.092;9.820;2023-05-16T05:43:45;12.67;;;3.80;;
8871;SDS011;4472;52.092;9.820;2023-05-16T05:46:32;11.97;;;3.83;;
8871;SDS011;4472;52.092;9.820;2023-05-16T05:49:19;9.33;;;4.00;;
8871;SDS011;4472;52.092;9.820;2023-05-16T05:52:08;11.90;;;4.50;;
8871;SDS011;4472;52.092;9.820;2023-05-16T05:54:56;10.67;;;4.13;;
8871;SDS011;4472;52.092;9.820;2023-05-16T05:57:45;18.63;;;3.70;;
8871;SDS011;4472;52.092;9.820;2023-05-16T06:00:32;11.10;;;4.13;;
8871;SDS011;4472;52.092;9.820;2023-05-16T06:03:27;15.27;;;4.50;;
8871;SDS011;4472;52.092;9.820;2023-05-16T06:06:16;13.50;;;3.50;;
8871;SDS011;4472;52.092;9.820;2023-05-16T06:09:03;16.17;;;3.63;;
8871;SDS011;4472;52.092;9.820;2023-05-16T06:11:50;10.57;;;2.93;;
8871;SDS011;4472;52.092;9.820;2023-05-16T06:14:39;11.67;;;3.03;;
8871;SDS011;4472;52.092;9.820;2023-05-16T06:17:26;10.97;;;2.77;;
8871;SDS011;4472;52.092;9.820;2023-05-16T06:20:13;13.47;;;3.00;;
8871;SDS011;4472;52.092;9.820;2023-05-16T06:23:00;19.60;;;3.37;;
8871;SDS011;4472;52.092;9.820;2023-05-16T06:25:48;10.33;;;2.37;;
8871;SDS011;4472;52.092;9.820;2023-05-16T06:28:35;10.33;;;2.73;;
8871;SDS011;4472;52.092;9.820;2023-05-16T06:31:24;12.03;;;2.30;;
8871;SDS011;4472;52.092;9.820;2023-05-16T06:34:11;16.23;;;3.17;;
8871;SDS011;4472;52.092;9.820;2023-05-16T06:36:58;11.70;;;2.83;;
8871;SDS011;4472;52.092;9.820;2023-05-16T06:39:48;9.63;;;2.53;;
8871;SDS011;4472;52.092;9.820;2023-05-16T06:42:35;17.90;;;2.70;;
8871;SDS011;4472;52.092;9.820;2023-05-16T06:45:22;9.37;;;2.60;;
8871;SDS011;4472;52.092;9.820;2023-05-16T06:48:10;8.87;;;2.37;;
8871;SDS011;4472;52.092;9.820;2023-05-16T06:50:59;10.63;;;2.40;;
8871;SDS011;4472;52.092;9.820;2023-05-16T06:53:46;12.20;;;2.87;;
8871;SDS011;4472;52.092;9.820;2023-05-16T06:56:33;14.87;;;2.90;;
8871;SDS011;4472;52.092;9.820;2023-05-16T06:59:20;10.10;;;2.67;;
8871;SDS011;4472;52.092;9.820;2023-05-16T07:02:08;11.23;;;2.73;;
8871;SDS011;4472;52.092;9.820;2023-05-16T07:04:56;17.33;;;3.37;;
8871;SDS011;4472;52.092;9.820;2023-05-16T07:07:43;12.10;;;2.57;;
8871;SDS011;4472;52.092;9.820;2023-05-16T07:10:31;14.23;;;3.43;;
8871;SDS011;4472;52.092;9.820;2023-05-16T07:13:18;12.17;;;3.30;;
8871;SDS011;4472;52.092;9.820;2023-05-16T07:16:05;11.10;;;2.50;;
8871;SDS011;4472;52.092;9.820;2023-05-16T07:18:53;9.43;;;2.33;;
8871;SDS011;4472;52.092;9.820;2023-05-16T07:21:41;10.00;;;2.70;;
8871;SDS011;4472;52.092;9.820;2023-05-16T07:24:29;12.60;;;2.60;;
8871;SDS011;4472;52.092;9.820;2023-05-16T07:27:16;11.00;;;2.90;;
8871;SDS011;4472;52.092;9.820;2023-05-16T07:30:03;12.20;;;3.07;;
8871;SDS011;4472;52.092;9.820;2023-05-16T07:32:51;11.03;;;2.60;;
8871;SDS011;4472;52.092;9.820;2023-05-16T07:35:38;10.00;;;2.13;;
8871;SDS011;4472;52.092;9.820;2023-05-16T07:38:26;8.80;;;2.10;;
8871;SDS011;4472;52.092;9.820;2023-05-16T07:41:14;6.47;;;2.50;;
8871;SDS011;4472;52.092;9.820;2023-05-16T07:44:01;10.80;;;2.93;;
8871;SDS011;4472;52.092;9.820;2023-05-16T07:46:48;10.07;;;2.43;;
8871;SDS011;4472;52.092;9.820;2023-05-16T07:49:35;10.07;;;2.20;;
8871;SDS011;4472;52.092;9.820;2023-05-16T07:52:22;10.70;;;2.73;;
8871;SDS011;4472;52.092;9.820;2023-05-16T07:55:11;7.47;;;2.40;;
8871;SDS011;4472;52.092;9.820;2023-05-16T07:57:58;3.53;;;1.77;;
8871;SDS011;4472;52.092;9.820;2023-05-16T08:00:45;7.43;;;2.07;;
8871;SDS011;4472;52.092;9.820;2023-05-16T08:03:32;11.13;;;2.17;;
8871;SDS011;4472;52.092;9.820;2023-05-16T08:06:21;8.43;;;2.10;;
8871;SDS011;4472;52.092;9.820;2023-05-16T08:09:08;6.13;;;1.97;;
8871;SDS011;4472;52.092;9.820;2023-05-16T08:11:56;3.60;;;1.40;;
8871;SDS011;4472;52.092;9.820;2023-05-16T08:14:47;7.23;;;2.57;;
8871;SDS011;4472;52.092;9.820;2023-05-16T08:17:34;7.40;;;2.07;;
8871;SDS011;4472;52.092;9.820;2023-05-16T08:20:22;6.63;;;2.17;;
8871;SDS011;4472;52.092;9.820;2023-05-16T08:23:10;9.67;;;2.37;;
8871;SDS011;4472;52.092;9.820;2023-05-16T08:25:57;9.57;;;2.77;;
8871;SDS011;4472;52.092;9.820;2023-05-16T08:28:46;6.77;;;2.30;;
8871;SDS011;4472;52.092;9.820;2023-05-16T08:31:34;11.47;;;2.77;;
8871;SDS011;4472;52.092;9.820;2023-05-16T08:34:21;11.47;;;2.60;;
8871;SDS011;4472;52.092;9.820;2023-05-16T08:37:08;8.77;;;2.50;;
8871;SDS011;4472;52.092;9.820;2023-05-16T08:39:55;9.93;;;2.67;;
8871;SDS011;4472;52.092;9.820;2023-05-16T08:42:43;6.87;;;2.17;;
8871;SDS011;4472;52.092;9.820;2023-05-16T08:45:32;7.43;;;2.10;;
8871;SDS011;4472;52.092;9.820;2023-05-16T08:48:21;9.87;;;2.53;;
8871;SDS011;4472;52.092;9.820;2023-05-16T08:51:09;8.37;;;2.20;;
8871;SDS011;4472;52.092;9.820;2023-05-16T08:53:58;4.90;;;1.87;;
8871;SDS011;4472;52.092;9.820;2023-05-16T08:56:48;7.20;;;2.20;;
8871;SDS011;4472;52.092;9.820;2023-05-16T08:59:36;8.73;;;2.30;;
8871;SDS011;4472;52.092;9.820;2023-05-16T09:02:25;7.87;;;2.43;;
8871;SDS011;4472;52.092;9.820;2023-05-16T09:05:13;10.70;;;3.03;;
8871;SDS011;4472;52.092;9.820;2023-05-16T09:08:01;8.23;;;2.60;;
8871;SDS011;4472;52.092;9.820;2023-05-16T09:10:48;9.87;;;2.40;;
8871;SDS011;4472;52.092;9.820;2023-05-16T09:13:36;6.03;;;1.80;;
8871;SDS011;4472;52.092;9.820;2023-05-16T09:16:24;7.27;;;2.20;;
8871;SDS011;4472;52.092;9.820;2023-05-16T09:19:13;6.83;;;2.13;;
8871;SDS011;4472;52.092;9.820;2023-05-16T09:22:01;6.63;;;1.50;;
8871;SDS011;4472;52.092;9.820;2023-05-16T09:24:48;6.87;;;1.93;;
8871;SDS011;4472;52.092;9.820;2023-05-16T09:27:35;6.60;;;2.00;;
8871;SDS011;4472;52.092;9.820;2023-05-16T09:30:26;8.50;;;2.10;;
8871;SDS011;4472;52.092;9.820;2023-05-16T09:33:14;7.47;;;2.23;;
8871;SDS011;4472;52.092;9.820;2023-05-16T09:36:03;6.53;;;2.30;;
8871;SDS011;4472;52.092;9.820;2023-05-16T09:38:51;8.87;;;2.70;;
8871;SDS011;4472;52.092;9.820;2023-05-16T09:41:38;5.07;;;1.93;;
8871;SDS011;4472;52.092;9.820;2023-05-16T09:44:26;7.63;;;2.57;;
8871;SDS011;4472;52.092;9.820;2023-05-16T09:47:17;6.67;;;2.40;;
8871;SDS011;4472;52.092;9.820;2023-05-16T09:50:05;5.77;;;1.97;;
8871;SDS011;4472;52.092;9.820;2023-05-16T09:52:54;8.13;;;2.27;;
8871;SDS011;4472;52.092;9.820;2023-05-16T09:55:43;9.83;;;2.47;;
8871;SDS011;4472;52.092;9.820;2023-05-16T09:58:31;8.80;;;2.23;;
8871;SDS011;4472;52.092;9.820;2023-05-16T10:01:20;8.67;;;2.37;;
8871;SDS011;4472;52.092;9.820;2023-05-16T10:04:09;7.43;;;2.37;;
8871;SDS011;4472;52.092;9.820;2023-05-16T10:07:00;4.87;;;2.10;;
8871;SDS011;4472;52.092;9.820;2023-05-16T10:09:50;7.07;;;1.87;;
8871;SDS011;4472;52.092;9.820;2023-05-16T10:12:39;6.63;;;1.97;;
8871;SDS011;4472;52.092;9.820;2023-05-16T10:15:27;7.93;;;2.50;;
8871;SDS011;4472;52.092;9.820;2023-05-16T10:18:15;4.23;;;1.80;;
8871;SDS011;4472;52.092;9.820;2023-05-16T10:21:04;5.23;;;1.67;;
8871;SDS011;4472;52.092;9.820;2023-05-16T10:23:53;6.30;;;1.83;;
8871;SDS011;4472;52.092;9.820;2023-05-16T10:26:45;4.63;;;1.90;;
8871;SDS011;4472;52.092;9.820;2023-05-16T10:29:32;5.63;;;1.77;;
8871;SDS011;4472;52.092;9.820;2023-05-16T10:32:20;5.87;;;2.30;;
8871;SDS011;4472;52.092;9.820;2023-05-16T10:35:09;10.00;;;2.00;;
8871;SDS011;4472;52.092;9.820;2023-05-16T10:37:56;5.47;;;1.97;;
8871;SDS011;4472;52.092;9.820;2023-05-16T10:40:45;5.03;;;1.90;;
8871;SDS011;4472;52.092;9.820;2023-05-16T10:43:34;4.93;;;1.77;;
8871;SDS011;4472;52.092;9.820;2023-05-16T10:46:22;5.30;;;1.93;;
8871;SDS011;4472;52.092;9.820;2023-05-16T10:49:19;9.43;;;2.10;;
8871;SDS011;4472;52.092;9.820;2023-05-16T10:52:07;5.40;;;1.97;;
8871;SDS011;4472;52.092;9.820;2023-05-16T10:54:56;7.03;;;2.00;;
8871;SDS011;4472;52.092;9.820;2023-05-16T10:57:48;6.33;;;1.57;;
8871;SDS011;4472;52.092;9.820;2023-05-16T11:00:37;3.87;;;1.70;;
8871;SDS011;4472;52.092;9.820;2023-05-16T11:03:25;5.43;;;2.03;;
8871;SDS011;4472;52.092;9.820;2023-05-16T11:06:15;2.90;;;1.77;;
8871;SDS011;4472;52.092;9.820;2023-05-16T11:09:12;2.77;;;1.43;;
8871;SDS011;4472;52.092;9.820;2023-05-16T11:12:08;2.40;;;1.70;;
8871;SDS011;4472;52.092;9.820;2023-05-16T11:14:55;3.37;;;1.53;;
8871;SDS011;4472;52.092;9.820;2023-05-16T11:17:45;6.67;;;1.73;;
8871;SDS011;4472;52.092;9.820;2023-05-16T11:20:33;5.50;;;1.70;;
8871;SDS011;4472;52.092;9.820;2023-05-16T11:23:22;7.43;;;1.73;;
8871;SDS011;4472;52.092;9.820;2023-05-16T11:26:10;7.80;;;1.83;;
8871;SDS011;4472;52.092;9.820;2023-05-16T11:28:58;5.10;;;1.90;;
8871;SDS011;4472;52.092;9.820;2023-05-16T11:31:48;7.63;;;1.93;;
8871;SDS011;4472;52.092;9.820;2023-05-16T11:34:37;4.13;;;2.17;;
8871;SDS011;4472;52.092;9.820;2023-05-16T11:37:25;6.83;;;2.20;;
8871;SDS011;4472;52.092;9.820;2023-05-16T11:40:12;2.67;;;1.63;;
8871;SDS011;4472;52.092;9.820;2023-05-16T11:43:01;6.70;;;1.90;;
8871;SDS011;4472;52.092;9.820;2023-05-16T11:45:52;7.93;;;2.03;;
8871;SDS011;4472;52.092;9.820;2023-05-16T11:48:40;6.13;;;2.37;;
8871;SDS011;4472;52.092;9.820;2023-05-16T11:51:29;6.13;;;2.30;;
8871;SDS011;4472;52.092;9.820;2023-05-16T11:54:16;3.83;;;1.80;;
8871;SDS011;4472;52.092;9.820;2023-05-16T11:57:05;7.07;;;2.17;;
8871;SDS011;4472;52.092;9.820;2023-05-16T11:59:52;5.67;;;1.87;;
8871;SDS011;4472;52.092;9.820;2023-05-16T12:02:40;6.50;;;2.20;;
8871;SDS011;4472;52.092;9.820;2023-05-16T12:05:27;3.87;;;1.70;;
8871;SDS011;4472;52.092;9.820;2023-05-16T12:08:17;6.07;;;2.17;;
8871;SDS011;4472;52.092;9.820;2023-05-16T12:11:05;4.33;;;1.60;;
8871;SDS011;4472;52.092;9.820;2023-05-16T12:13:52;3.23;;;1.50;;
8871;SDS011;4472;52.092;9.820;2023-05-16T12:16:40;4.13;;;1.50;;
8871;SDS011;4472;52.092;9.820;2023-05-16T12:19:28;3.27;;;1.77;;
8871;SDS011;4472;52.092;9.820;2023-05-16T12:22:15;4.27;;;1.30;;
8871;SDS011;4472;52.092;9.820;2023-05-16T12:27:58;3.57;;;1.70;;
8871;SDS011;4472;52.092;9.820;2023-05-16T12:30:46;2.87;;;1.37;;
8871;SDS011;4472;52.092;9.820;2023-05-16T12:33:35;3.70;;;1.70;;
8871;SDS011;4472;52.092;9.820;2023-05-16T12:36:23;4.57;;;1.60;;
8871;SDS011;4472;52.092;9.820;2023-05-16T12:39:11;6.40;;;1.73;;
8871;SDS011;4472;52.092;9.820;2023-05-16T12:42:03;4.57;;;1.73;;
8871;SDS011;4472;52.092;9.820;2023-05-16T12:44:55;4.07;;;1.67;;
8871;SDS011;4472;52.092;9.820;2023-05-16T12:47:42;4.07;;;1.60;;
8871;SDS011;4472;52.092;9.820;2023-05-16T12:50:30;3.13;;;1.43;;
8871;SDS011;4472;52.092;9.820;2023-05-16T12:53:18;5.33;;;1.57;;
8871;SDS011;4472;52.092;9.820;2023-05-16T12:56:06;4.23;;;1.50;;
8871;SDS011;4472;52.092;9.820;2023-05-16T12:58:53;3.70;;;1.43;;
8871;SDS011;4472;52.092;9.820;2023-05-16T13:01:41;2.03;;;1.63;;
8871;SDS011;4472;52.092;9.820;2023-05-16T13:04:30;4.60;;;1.77;;
8871;SDS011;4472;52.092;9.820;2023-05-16T13:07:17;3.17;;;1.70;;
8871;SDS011;4472;52.092;9.820;2023-05-16T13:10:05;3.40;;;1.70;;
8871;SDS011;4472;52.092;9.820;2023-05-16T13:12:54;3.40;;;1.60;;
8871;SDS011;4472;52.092;9.820;2023-05-16T13:15:43;3.60;;;1.87;;
8871;SDS011;4472;52.092;9.820;2023-05-16T13:18:31;3.43;;;1.60;;
8871;SDS011;4472;52.092;9.820;2023-05-16T13:21:20;4.07;;;1.70;;
8871;SDS011;4472;52.092;9.820;2023-05-16T13:24:07;2.87;;;1.50;;
8871;SDS011;4472;52.092;9.820;2023-05-16T13:26:54;3.80;;;1.70;;
8871;SDS011;4472;52.092;9.820;2023-05-16T13:29:42;3.53;;;2.00;;
8871;SDS011;4472;52.092;9.820;2023-05-16T13:32:29;5.10;;;1.57;;
8871;SDS011;4472;52.092;9.820;2023-05-16T13:35:18;4.43;;;1.67;;
8871;SDS011;4472;52.092;9.820;2023-05-16T13:38:06;6.00;;;1.90;;
8871;SDS011;4472;52.092;9.820;2023-05-16T13:40:53;6.07;;;2.00;;
8871;SDS011;4472;52.092;9.820;2023-05-16T13:43:40;6.40;;;1.80;;
8871;SDS011;4472;52.092;9.820;2023-05-16T13:46:27;6.57;;;1.70;;
8871;SDS011;4472;52.092;9.820;2023-05-16T13:49:14;5.30;;;1.87;;
8871;SDS011;4472;52.092;9.820;2023-05-16T13:52:03;3.27;;;1.60;;
8871;SDS011;4472;52.092;9.820;2023-05-16T13:54:51;4.90;;;1.60;;
8871;SDS011;4472;52.092;9.820;2023-05-16T13:57:38;4.60;;;1.53;;
8871;SDS011;4472;52.092;9.820;2023-05-16T14:00:25;3.17;;;1.60;;
8871;SDS011;4472;52.092;9.820;2023-05-16T14:03:12;4.47;;;1.80;;
8871;SDS011;4472;52.092;9.820;2023-05-16T14:05:59;3.60;;;1.67;;
8871;SDS011;4472;52.092;9.820;2023-05-16T14:08:48;5.63;;;1.90;;
8871;SDS011;4472;52.092;9.820;2023-05-16T14:11:35;3.37;;;1.80;;
8871;SDS011;4472;52.092;9.820;2023-05-16T14:14:22;4.77;;;1.80;;
8871;SDS011;4472;52.092;9.820;2023-05-16T14:17:09;6.13;;;1.67;;
8871;SDS011;4472;52.092;9.820;2023-05-16T14:19:56;2.03;;;1.50;;
8871;SDS011;4472;52.092;9.820;2023-05-16T14:22:43;4.50;;;1.90;;
8871;SDS011;4472;52.092;9.820;2023-05-16T14:25:32;5.23;;;1.73;;
8871;SDS011;4472;52.092;9.820;2023-05-16T14:28:19;5.23;;;1.57;;
8871;SDS011;4472;52.092;9.820;2023-05-16T14:31:06;5.07;;;1.83;;
8871;SDS011;4472;52.092;9.820;2023-05-16T14:33:53;4.50;;;1.63;;
8871;SDS011;4472;52.092;9.820;2023-05-16T14:36:40;3.30;;;1.43;;
8871;SDS011;4472;52.092;9.820;2023-05-16T14:39:28;1.40;;;1.30;;
8871;SDS011;4472;52.092;9.820;2023-05-16T14:42:16;4.30;;;1.50;;
8871;SDS011;4472;52.092;9.820;2023-05-16T14:45:04;2.83;;;1.33;;
8871;SDS011;4472;52.092;9.820;2023-05-16T14:47:52;2.10;;;1.40;;
8871;SDS011;4472;52.092;9.820;2023-05-16T14:50:39;1.90;;;1.40;;
8871;SDS011;4472;52.092;9.820;2023-05-16T14:53:26;2.47;;;1.30;;
8871;SDS011;4472;52.092;9.820;2023-05-16T14:56:13;3.37;;;1.53;;
8871;SDS011;4472;52.092;9.820;2023-05-16T14:59:02;2.83;;;1.67;;
8871;SDS011;4472;52.092;9.820;2023-05-16T15:01:49;1.80;;;1.30;;
8871;SDS011;4472;52.092;9.820;2023-05-16T15:04:36;5.10;;;1.80;;
8871;SDS011;4472;52.092;9.820;2023-05-16T15:07:23;4.00;;;1.43;;
8871;SDS011;4472;52.092;9.820;2023-05-16T15:10:10;4.90;;;1.80;;
8871;SDS011;4472;52.092;9.820;2023-05-16T15:12:58;5.40;;;1.83;;
8871;SDS011;4472;52.092;9.820;2023-05-16T15:15:46;5.17;;;1.93;;
8871;SDS011;4472;52.092;9.820;2023-05-16T15:18:33;5.60;;;1.40;;
8871;SDS011;4472;52.092;9.820;2023-05-16T15:21:20;5.50;;;1.47;;
8871;SDS011;4472;52.092;9.820;2023-05-16T15:24:08;3.33;;;1.90;;
8871;SDS011;4472;52.092;9.820;2023-05-16T15:26:56;5.77;;;1.97;;
8871;SDS011;4472;52.092;9.820;2023-05-16T15:29:43;1.57;;;1.20;;
8871;SDS011;4472;52.092;9.820;2023-05-16T15:32:32;3.57;;;1.30;;
8871;SDS011;4472;52.092;9.820;2023-05-16T15:35:19;5.73;;;1.70;;
8871;SDS011;4472;52.092;9.820;2023-05-16T15:38:09;5.07;;;1.90;;
8871;SDS011;4472;52.092;9.820;2023-05-16T15:40:56;4.40;;;1.97;;
8871;SDS011;4472;52.092;9.820;2023-05-16T15:43:43;3.53;;;1.37;;
8871;SDS011;4472;52.092;9.820;2023-05-16T15:46:30;4.13;;;1.67;;
8871;SDS011;4472;52.092;9.820;2023-05-16T15:49:19;4.40;;;2.23;;
8871;SDS011;4472;52.092;9.820;2023-05-16T15:52:06;3.57;;;1.30;;
8871;SDS011;4472;52.092;9.820;2023-05-16T15:54:53;4.23;;;1.87;;
8871;SDS011;4472;52.092;9.820;2023-05-16T15:57:40;3.20;;;1.83;;
8871;SDS011;4472;52.092;9.820;2023-05-16T16:00:28;3.83;;;1.60;;
8871;SDS011;4472;52.092;9.820;2023-05-16T16:03:15;3.47;;;1.40;;
8871;SDS011;4472;52.092;9.820;2023-05-16T16:06:04;4.90;;;1.50;;
8871;SDS011;4472;52.092;9.820;2023-05-16T16:08:51;3.50;;;1.83;;
8871;SDS011;4472;52.092;9.820;2023-05-16T16:11:38;2.87;;;1.50;;
8871;SDS011;4472;52.092;9.820;2023-05-16T16:14:25;6.47;;;1.43;;
8871;SDS011;4472;52.092;9.820;2023-05-16T16:17:12;4.83;;;1.30;;
8871;SDS011;4472;52.092;9.820;2023-05-16T16:20:00;4.13;;;1.53;;
8871;SDS011;4472;52.092;9.820;2023-05-16T16:22:49;2.80;;;1.67;;
8871;SDS011;4472;52.092;9.820;2023-05-16T16:25:36;2.13;;;1.53;;
8871;SDS011;4472;52.092;9.820;2023-05-16T16:28:23;3.00;;;1.37;;
8871;SDS011;4472;52.092;9.820;2023-05-16T16:31:10;3.80;;;1.80;;
8871;SDS011;4472;52.092;9.820;2023-05-16T16:33:58;3.00;;;1.30;;
8871;SDS011;4472;52.092;9.820;2023-05-16T16:36:45;2.33;;;1.60;;
8871;SDS011;4472;52.092;9.820;2023-05-16T16:39:33;1.77;;;1.37;;
8871;SDS011;4472;52.092;9.820;2023-05-16T16:42:21;3.43;;;1.67;;
8871;SDS011;4472;52.092;9.820;2023-05-16T16:45:09;1.77;;;1.33;;
8871;SDS011;4472;52.092;9.820;2023-05-16T16:47:57;3.50;;;1.60;;
8871;SDS011;4472;52.092;9.820;2023-05-16T16:50:44;2.63;;;1.80;;
8871;SDS011;4472;52.092;9.820;2023-05-16T16:53:31;3.67;;;1.60;;
8871;SDS011;4472;52.092;9.820;2023-05-16T16:56:20;4.77;;;1.70;;
8871;SDS011;4472;52.092;9.820;2023-05-16T16:59:07;4.57;;;1.77;;
8871;SDS011;4472;52.092;9.820;2023-05-16T17:01:55;4.70;;;2.07;;
8871;SDS011;4472;52.092;9.820;2023-05-16T17:04:42;2.90;;;1.40;;
8871;SDS011;4472;52.092;9.820;2023-05-16T17:07:30;4.07;;;1.70;;
8871;SDS011;4472;52.092;9.820;2023-05-16T17:10:17;13.97;;;1.80;;
8871;SDS011;4472;52.092;9.820;2023-05-16T17:13:06;3.53;;;1.80;;
8871;SDS011;4472;52.092;9.820;2023-05-16T17:15:56;5.93;;;1.93;;
8871;SDS011;4472;52.092;9.820;2023-05-16T17:18:43;6.00;;;1.90;;
8871;SDS011;4472;52.092;9.820;2023-05-16T17:21:30;4.50;;;1.90;;